Kalvesta, Kansas
Current Conditions -  °F | °C
As of 12:52 PM on Friday 24 Oct 2014 (Local Time) from KDDC Reporting Station
Clear Clear  
Wind Chill: 81°   Ceiling: Unl
Heat Index: 81°   Visibility: 10mi
Dew Point: 52°   Wind: 9mph
Humidity: 36%   Direction: 220°SW
Pressure: 30.08"   Gusts: NA
Location:  37.8692°N, 100.332°W
Report Text: KDDC 241752Z AUTO 22008KT 10SM CLR 27/11 A3008 RMK AO2 SLP159 T02720111 10272 20117 58004
Loading
Personal Weather Stations






























Interactive Weather Map
Tropical Storm Tracking
New forecast layout! Learn more

10-Day Weather Forecast

Advertisements
Track Severe Weather on mobile